sensor_id;sensor_type;location;lat;lon;timestamp;P1;P2;P0
28647;PMS5003;17137;51.494;-0.262;2022-09-16T00:00:07;6;4;
28647;PMS5003;17137;51.494;-0.262;2022-09-16T00:00:40;5;4;
28647;PMS5003;17137;51.494;-0.262;2022-09-16T00:01:12;5;4;
28647;PMS5003;17137;51.494;-0.262;2022-09-16T00:01:43;5;4;
28647;PMS5003;17137;51.494;-0.262;2022-09-16T00:02:14;5;4;
28647;PMS5003;17137;51.494;-0.262;2022-09-16T00:02:44;5;4;
28647;PMS5003;17137;51.494;-0.262;2022-09-16T00:03:15;5;4;
28647;PMS5003;17137;51.494;-0.262;2022-09-16T00:03:46;4;4;
28647;PMS5003;17137;51.494;-0.262;2022-09-16T00:04:17;4;4;
28647;PMS5003;17137;51.494;-0.262;2022-09-16T00:04:47;4;4;
28647;PMS5003;17137;51.494;-0.262;2022-09-16T00:05:17;4;4;
28647;PMS5003;17137;51.494;-0.262;2022-09-16T00:05:50;4;4;
28647;PMS5003;17137;51.494;-0.262;2022-09-16T00:06:22;4;4;
28647;PMS5003;17137;51.494;-0.262;2022-09-16T00:06:54;4;4;
28647;PMS5003;17137;51.494;-0.262;2022-09-16T00:07:24;4;4;
28647;PMS5003;17137;51.494;-0.262;2022-09-16T00:07:54;4;4;
28647;PMS5003;17137;51.494;-0.262;2022-09-16T00:08:30;5;5;
28647;PMS5003;17137;51.494;-0.262;2022-09-16T00:09:00;5;5;
28647;PMS5003;17137;51.494;-0.262;2022-09-16T00:09:30;5;5;
28647;PMS5003;17137;51.494;-0.262;2022-09-16T00:10:01;5;5;
28647;PMS5003;17137;51.494;-0.262;2022-09-16T00:10:32;5;5;
28647;PMS5003;17137;51.494;-0.262;2022-09-16T00:11:03;5;5;
28647;PMS5003;17137;51.494;-0.262;2022-09-16T00:11:33;5;5;
28647;PMS5003;17137;51.494;-0.262;2022-09-16T00:12:04;5;5;
28647;PMS5003;17137;51.494;-0.262;2022-09-16T00:12:35;5;5;
28647;PMS5003;17137;51.494;-0.262;2022-09-16T00:13:05;5;5;
28647;PMS5003;17137;51.494;-0.262;2022-09-16T00:13:36;5;5;
28647;PMS5003;17137;51.494;-0.262;2022-09-16T00:14:06;5;5;
28647;PMS5003;17137;51.494;-0.262;2022-09-16T00:14:38;6;6;
28647;PMS5003;17137;51.494;-0.262;2022-09-16T00:15:09;6;6;
28647;PMS5003;17137;51.494;-0.262;2022-09-16T00:15:40;6;6;
28647;PMS5003;17137;51.494;-0.262;2022-09-16T00:16:15;5;5;
28647;PMS5003;17137;51.494;-0.262;2022-09-16T00:16:46;5;5;
28647;PMS5003;17137;51.494;-0.262;2022-09-16T00:17:17;5;5;
28647;PMS5003;17137;51.494;-0.262;2022-09-16T00:17:47;7;6;
28647;PMS5003;17137;51.494;-0.262;2022-09-16T00:18:17;7;6;
28647;PMS5003;17137;51.494;-0.262;2022-09-16T00:18:51;7;6;
28647;PMS5003;17137;51.494;-0.262;2022-09-16T00:19:22;7;6;
28647;PMS5003;17137;51.494;-0.262;2022-09-16T00:19:52;7;6;
28647;PMS5003;17137;51.494;-0.262;2022-09-16T00:20:22;7;6;
28647;PMS5003;17137;51.494;-0.262;2022-09-16T00:20:53;7;6;
28647;PMS5003;17137;51.494;-0.262;2022-09-16T00:21:23;7;6;
28647;PMS5003;17137;51.494;-0.262;2022-09-16T00:21:54;7;6;
28647;PMS5003;17137;51.494;-0.262;2022-09-16T00:22:26;8;6;
28647;PMS5003;17137;51.494;-0.262;2022-09-16T00:22:57;8;6;
28647;PMS5003;17137;51.494;-0.262;2022-09-16T00:23:27;8;6;
28647;PMS5003;17137;51.494;-0.262;2022-09-16T00:23:57;8;6;
28647;PMS5003;17137;51.494;-0.262;2022-09-16T00:24:28;8;6;
28647;PMS5003;17137;51.494;-0.262;2022-09-16T00:24:58;8;6;
28647;PMS5003;17137;51.494;-0.262;2022-09-16T00:25:33;8;7;
28647;PMS5003;17137;51.494;-0.262;2022-09-16T00:26:04;8;7;
28647;PMS5003;17137;51.494;-0.262;2022-09-16T00:26:34;8;7;
28647;PMS5003;17137;51.494;-0.262;2022-09-16T00:27:05;8;7;
28647;PMS5003;17137;51.494;-0.262;2022-09-16T00:27:36;8;7;
28647;PMS5003;17137;51.494;-0.262;2022-09-16T00:28:06;8;7;
28647;PMS5003;17137;51.494;-0.262;2022-09-16T00:28:37;8;7;
28647;PMS5003;17137;51.494;-0.262;2022-09-16T00:29:07;8;7;
28647;PMS5003;17137;51.494;-0.262;2022-09-16T00:29:38;8;7;
28647;PMS5003;17137;51.494;-0.262;2022-09-16T00:30:08;8;6;
28647;PMS5003;17137;51.494;-0.262;2022-09-16T00:30:39;8;6;
28647;PMS5003;17137;51.494;-0.262;2022-09-16T00:31:10;8;6;
28647;PMS5003;17137;51.494;-0.262;2022-09-16T00:31:40;7;6;
28647;PMS5003;17137;51.494;-0.262;2022-09-16T00:32:11;7;6;
28647;PMS5003;17137;51.494;-0.262;2022-09-16T00:32:42;7;6;
28647;PMS5003;17137;51.494;-0.262;2022-09-16T00:33:13;6;6;
28647;PMS5003;17137;51.494;-0.262;2022-09-16T00:33:44;7;7;
28647;PMS5003;17137;51.494;-0.262;2022-09-16T00:34:14;7;7;
28647;PMS5003;17137;51.494;-0.262;2022-09-16T00:34:44;7;7;
28647;PMS5003;17137;51.494;-0.262;2022-09-16T00:35:15;7;7;
28647;PMS5003;17137;51.494;-0.262;2022-09-16T00:35:46;7;7;
28647;PMS5003;17137;51.494;-0.262;2022-09-16T00:36:17;6;6;
28647;PMS5003;17137;51.494;-0.262;2022-09-16T00:36:48;6;6;
28647;PMS5003;17137;51.494;-0.262;2022-09-16T00:37:19;6;6;
28647;PMS5003;17137;51.494;-0.262;2022-09-16T00:37:49;6;6;
28647;PMS5003;17137;51.494;-0.262;2022-09-16T00:38:19;6;6;
28647;PMS5003;17137;51.494;-0.262;2022-09-16T00:38:50;5;5;
28647;PMS5003;17137;51.494;-0.262;2022-09-16T00:39:22;5;4;
28647;PMS5003;17137;51.494;-0.262;2022-09-16T00:39:53;5;4;
28647;PMS5003;17137;51.494;-0.262;2022-09-16T00:40:23;5;4;
28647;PMS5003;17137;51.494;-0.262;2022-09-16T00:40:53;6;5;
28647;PMS5003;17137;51.494;-0.262;2022-09-16T00:41:25;6;5;
28647;PMS5003;17137;51.494;-0.262;2022-09-16T00:41:57;6;5;
28647;PMS5003;17137;51.494;-0.262;2022-09-16T00:42:27;5;4;
28647;PMS5003;17137;51.494;-0.262;2022-09-16T00:42:58;5;4;
28647;PMS5003;17137;51.494;-0.262;2022-09-16T00:43:28;5;4;
28647;PMS5003;17137;51.494;-0.262;2022-09-16T00:45:20;5;4;
28647;PMS5003;17137;51.494;-0.262;2022-09-16T00:45:54;6;5;
28647;PMS5003;17137;51.494;-0.262;2022-09-16T00:46:30;6;5;
28647;PMS5003;17137;51.494;-0.262;2022-09-16T00:47:04;7;6;
28647;PMS5003;17137;51.494;-0.262;2022-09-16T00:47:36;6;5;
28647;PMS5003;17137;51.494;-0.262;2022-09-16T00:48:11;6;5;
28647;PMS5003;17137;51.494;-0.262;2022-09-16T00:48:48;6;5;
28647;PMS5003;17137;51.494;-0.262;2022-09-16T00:49:19;6;5;
28647;PMS5003;17137;51.494;-0.262;2022-09-16T00:49:55;6;5;
28647;PMS5003;17137;51.494;-0.262;2022-09-16T00:50:30;6;5;
28647;PMS5003;17137;51.494;-0.262;2022-09-16T00:51:04;6;5;
28647;PMS5003;17137;51.494;-0.262;2022-09-16T00:51:37;7;6;
28647;PMS5003;17137;51.494;-0.262;2022-09-16T00:52:10;8;7;
28647;PMS5003;17137;51.494;-0.262;2022-09-16T00:52:41;8;7;
28647;PMS5003;17137;51.494;-0.262;2022-09-16T00:53:14;8;7;
28647;PMS5003;17137;51.494;-0.262;2022-09-16T00:53:48;8;7;
28647;PMS5003;17137;51.494;-0.262;2022-09-16T00:54:21;8;7;
28647;PMS5003;17137;51.494;-0.262;2022-09-16T00:54:52;8;7;
28647;PMS5003;17137;51.494;-0.262;2022-09-16T00:55:24;8;7;
28647;PMS5003;17137;51.494;-0.262;2022-09-16T00:55:57;8;7;
28647;PMS5003;17137;51.494;-0.262;2022-09-16T00:56:33;8;7;
28647;PMS5003;17137;51.494;-0.262;2022-09-16T00:57:06;7;7;
28647;PMS5003;17137;51.494;-0.262;2022-09-16T00:57:39;7;7;
28647;PMS5003;17137;51.494;-0.262;2022-09-16T00:58:11;7;7;
28647;PMS5003;17137;51.494;-0.262;2022-09-16T00:58:46;7;7;
28647;PMS5003;17137;51.494;-0.262;2022-09-16T00:59:20;7;7;
28647;PMS5003;17137;51.494;-0.262;2022-09-16T00:59:54;7;7;
28647;PMS5003;17137;51.494;-0.262;2022-09-16T01:00:25;9;7;
28647;PMS5003;17137;51.494;-0.262;2022-09-16T01:00:56;9;7;
28647;PMS5003;17137;51.494;-0.262;2022-09-16T01:01:27;9;7;
28647;PMS5003;17137;51.494;-0.262;2022-09-16T01:01:58;9;7;
28647;PMS5003;17137;51.494;-0.262;2022-09-16T01:02:35;9;7;
28647;PMS5003;17137;51.494;-0.262;2022-09-16T01:03:06;9;7;
28647;PMS5003;17137;51.494;-0.262;2022-09-16T01:03:39;8;7;
28647;PMS5003;17137;51.494;-0.262;2022-09-16T01:04:15;8;7;
28647;PMS5003;17137;51.494;-0.262;2022-09-16T01:04:49;8;7;
28647;PMS5003;17137;51.494;-0.262;2022-09-16T01:05:23;7;6;
28647;PMS5003;17137;51.494;-0.262;2022-09-16T01:05:55;7;6;
28647;PMS5003;17137;51.494;-0.262;2022-09-16T01:06:26;7;6;
28647;PMS5003;17137;51.494;-0.262;2022-09-16T01:06:57;9;6;
28647;PMS5003;17137;51.494;-0.262;2022-09-16T01:07:30;9;6;
28647;PMS5003;17137;51.494;-0.262;2022-09-16T01:08:03;9;6;
28647;PMS5003;17137;51.494;-0.262;2022-09-16T01:08:33;8;5;
28647;PMS5003;17137;51.494;-0.262;2022-09-16T01:09:09;8;5;
28647;PMS5003;17137;51.494;-0.262;2022-09-16T01:09:40;8;5;
28647;PMS5003;17137;51.494;-0.262;2022-09-16T01:10:10;9;6;
28647;PMS5003;17137;51.494;-0.262;2022-09-16T01:10:42;9;6;
28647;PMS5003;17137;51.494;-0.262;2022-09-16T01:11:12;9;6;
28647;PMS5003;17137;51.494;-0.262;2022-09-16T01:11:43;8;5;
28647;PMS5003;17137;51.494;-0.262;2022-09-16T01:12:13;8;5;
28647;PMS5003;17137;51.494;-0.262;2022-09-16T01:12:44;8;5;
28647;PMS5003;17137;51.494;-0.262;2022-09-16T01:13:17;8;5;
28647;PMS5003;17137;51.494;-0.262;2022-09-16T01:13:48;8;5;
28647;PMS5003;17137;51.494;-0.262;2022-09-16T01:14:20;8;5;
28647;PMS5003;17137;51.494;-0.262;2022-09-16T01:14:53;8;5;
28647;PMS5003;17137;51.494;-0.262;2022-09-16T01:15:25;8;5;
28647;PMS5003;17137;51.494;-0.262;2022-09-16T01:16:03;8;5;
28647;PMS5003;17137;51.494;-0.262;2022-09-16T01:16:39;7;5;
28647;PMS5003;17137;51.494;-0.262;2022-09-16T01:17:14;7;5;
28647;PMS5003;17137;51.494;-0.262;2022-09-16T01:17:57;7;5;
28647;PMS5003;17137;51.494;-0.262;2022-09-16T01:18:37;6;5;
28647;PMS5003;17137;51.494;-0.262;2022-09-16T01:19:15;6;5;
28647;PMS5003;17137;51.494;-0.262;2022-09-16T01:20:03;6;5;
28647;PMS5003;17137;51.494;-0.262;2022-09-16T01:20:56;7;5;
28647;PMS5003;17137;51.494;-0.262;2022-09-16T01:21:37;7;5;
28647;PMS5003;17137;51.494;-0.262;2022-09-16T01:22:18;7;5;
28647;PMS5003;17137;51.494;-0.262;2022-09-16T01:23:04;6;5;
28647;PMS5003;17137;51.494;-0.262;2022-09-16T01:24:22;6;5;
28647;PMS5003;17137;51.494;-0.262;2022-09-16T01:25:38;6;5;
28647;PMS5003;17137;51.494;-0.262;2022-09-16T01:26:27;6;4;
28647;PMS5003;17137;51.494;-0.262;2022-09-16T01:29:18;5;3;
28647;PMS5003;17137;51.494;-0.262;2022-09-16T01:31:25;5;3;
28647;PMS5003;17137;51.494;-0.262;2022-09-16T01:32:00;5;4;
28647;PMS5003;17137;51.494;-0.262;2022-09-16T01:32:40;6;5;
28647;PMS5003;17137;51.494;-0.262;2022-09-16T01:33:22;6;5;
28647;PMS5003;17137;51.494;-0.262;2022-09-16T01:34:00;6;5;
28647;PMS5003;17137;51.494;-0.262;2022-09-16T01:34:44;6;5;
28647;PMS5003;17137;51.494;-0.262;2022-09-16T01:35:23;6;5;
28647;PMS5003;17137;51.494;-0.262;2022-09-16T01:36:08;6;5;
28647;PMS5003;17137;51.494;-0.262;2022-09-16T01:36:55;6;5;
28647;PMS5003;17137;51.494;-0.262;2022-09-16T01:37:37;6;5;
28647;PMS5003;17137;51.494;-0.262;2022-09-16T01:38:25;8;5;
28647;PMS5003;17137;51.494;-0.262;2022-09-16T01:39:08;8;5;
28647;PMS5003;17137;51.494;-0.262;2022-09-16T01:39:52;8;5;
28647;PMS5003;17137;51.494;-0.262;2022-09-16T01:40:32;8;5;
28647;PMS5003;17137;51.494;-0.262;2022-09-16T01:41:08;8;5;
28647;PMS5003;17137;51.494;-0.262;2022-09-16T01:41:51;8;5;
28647;PMS5003;17137;51.494;-0.262;2022-09-16T01:42:32;10;6;
28647;PMS5003;17137;51.494;-0.262;2022-09-16T01:43:10;10;6;
28647;PMS5003;17137;51.494;-0.262;2022-09-16T01:43:48;10;6;
28647;PMS5003;17137;51.494;-0.262;2022-09-16T01:44:27;11;6;
28647;PMS5003;17137;51.494;-0.262;2022-09-16T01:45:11;11;6;
28647;PMS5003;17137;51.494;-0.262;2022-09-16T01:45:50;11;6;
28647;PMS5003;17137;51.494;-0.262;2022-09-16T01:46:27;11;5;
28647;PMS5003;17137;51.494;-0.262;2022-09-16T01:47:07;11;5;
28647;PMS5003;17137;51.494;-0.262;2022-09-16T01:47:46;11;5;
28647;PMS5003;17137;51.494;-0.262;2022-09-16T01:48:24;11;6;
28647;PMS5003;17137;51.494;-0.262;2022-09-16T01:49:03;11;6;
28647;PMS5003;17137;51.494;-0.262;2022-09-16T01:49:42;11;6;
28647;PMS5003;17137;51.494;-0.262;2022-09-16T01:50:23;11;7;
28647;PMS5003;17137;51.494;-0.262;2022-09-16T01:50:59;11;7;
28647;PMS5003;17137;51.494;-0.262;2022-09-16T01:51:36;11;7;
28647;PMS5003;17137;51.494;-0.262;2022-09-16T01:52:16;11;7;
28647;PMS5003;17137;51.494;-0.262;2022-09-16T01:52:53;11;7;
28647;PMS5003;17137;51.494;-0.262;2022-09-16T01:53:31;11;7;
28647;PMS5003;17137;51.494;-0.262;2022-09-16T01:54:06;11;6;
28647;PMS5003;17137;51.494;-0.262;2022-09-16T01:54:41;11;6;
28647;PMS5003;17137;51.494;-0.262;2022-09-16T01:55:17;11;6;
28647;PMS5003;17137;51.494;-0.262;2022-09-16T01:55:55;10;6;
28647;PMS5003;17137;51.494;-0.262;2022-09-16T01:56:31;10;6;
28647;PMS5003;17137;51.494;-0.262;2022-09-16T01:57:09;10;6;
28647;PMS5003;17137;51.494;-0.262;2022-09-16T01:57:48;9;6;
28647;PMS5003;17137;51.494;-0.262;2022-09-16T01:58:22;9;6;
28647;PMS5003;17137;51.494;-0.262;2022-09-16T01:58:57;9;6;
28647;PMS5003;17137;51.494;-0.262;2022-09-16T01:59:33;11;6;
28647;PMS5003;17137;51.494;-0.262;2022-09-16T02:00:11;11;6;
28647;PMS5003;17137;51.494;-0.262;2022-09-16T02:00:43;11;6;
28647;PMS5003;17137;51.494;-0.262;2022-09-16T02:01:21;8;6;
28647;PMS5003;17137;51.494;-0.262;2022-09-16T02:01:58;8;6;
28647;PMS5003;17137;51.494;-0.262;2022-09-16T02:02:33;8;6;
28647;PMS5003;17137;51.494;-0.262;2022-09-16T02:03:06;7;6;
28647;PMS5003;17137;51.494;-0.262;2022-09-16T02:03:41;7;6;
28647;PMS5003;17137;51.494;-0.262;2022-09-16T02:04:15;7;6;
28647;PMS5003;17137;51.494;-0.262;2022-09-16T02:04:51;8;6;
28647;PMS5003;17137;51.494;-0.262;2022-09-16T02:05:26;8;6;
28647;PMS5003;17137;51.494;-0.262;2022-09-16T02:06:02;8;6;
28647;PMS5003;17137;51.494;-0.262;2022-09-16T02:06:35;8;6;
28647;PMS5003;17137;51.494;-0.262;2022-09-16T02:07:09;8;6;
28647;PMS5003;17137;51.494;-0.262;2022-09-16T02:07:44;8;6;
28647;PMS5003;17137;51.494;-0.262;2022-09-16T02:08:23;7;6;
28647;PMS5003;17137;51.494;-0.262;2022-09-16T02:08:56;7;6;
28647;PMS5003;17137;51.494;-0.262;2022-09-16T02:09:31;7;6;
28647;PMS5003;17137;51.494;-0.262;2022-09-16T02:10:07;7;6;
28647;PMS5003;17137;51.494;-0.262;2022-09-16T02:10:46;7;6;
28647;PMS5003;17137;51.494;-0.262;2022-09-16T02:11:20;7;6;
28647;PMS5003;17137;51.494;-0.262;2022-09-16T02:11:51;8;6;
28647;PMS5003;17137;51.494;-0.262;2022-09-16T02:12:27;8;6;
28647;PMS5003;17137;51.494;-0.262;2022-09-16T02:13:04;8;6;
28647;PMS5003;17137;51.494;-0.262;2022-09-16T02:13:40;8;7;
28647;PMS5003;17137;51.494;-0.262;2022-09-16T02:14:14;8;7;
28647;PMS5003;17137;51.494;-0.262;2022-09-16T02:14:47;8;7;
28647;PMS5003;17137;51.494;-0.262;2022-09-16T02:15:21;8;6;
28647;PMS5003;17137;51.494;-0.262;2022-09-16T02:15:54;8;6;
28647;PMS5003;17137;51.494;-0.262;2022-09-16T02:16:29;8;6;
28647;PMS5003;17137;51.494;-0.262;2022-09-16T02:17:04;6;6;
28647;PMS5003;17137;51.494;-0.262;2022-09-16T02:17:40;6;6;
28647;PMS5003;17137;51.494;-0.262;2022-09-16T02:18:14;6;6;
28647;PMS5003;17137;51.494;-0.262;2022-09-16T02:18:49;5;5;
28647;PMS5003;17137;51.494;-0.262;2022-09-16T02:19:23;5;5;
28647;PMS5003;17137;51.494;-0.262;2022-09-16T02:19:59;5;5;
28647;PMS5003;17137;51.494;-0.262;2022-09-16T02:20:35;6;6;
28647;PMS5003;17137;51.494;-0.262;2022-09-16T02:21:09;6;6;
28647;PMS5003;17137;51.494;-0.262;2022-09-16T02:21:44;6;6;
28647;PMS5003;17137;51.494;-0.262;2022-09-16T02:22:16;5;5;
28647;PMS5003;17137;51.494;-0.262;2022-09-16T02:22:52;5;5;
28647;PMS5003;17137;51.494;-0.262;2022-09-16T02:23:30;5;5;
28647;PMS5003;17137;51.494;-0.262;2022-09-16T02:24:04;6;6;
28647;PMS5003;17137;51.494;-0.262;2022-09-16T02:24:39;6;6;
28647;PMS5003;17137;51.494;-0.262;2022-09-16T02:25:12;6;6;
28647;PMS5003;17137;51.494;-0.262;2022-09-16T02:25:46;7;6;
28647;PMS5003;17137;51.494;-0.262;2022-09-16T02:26:20;7;6;
28647;PMS5003;17137;51.494;-0.262;2022-09-16T02:26:54;7;6;
28647;PMS5003;17137;51.494;-0.262;2022-09-16T02:27:27;6;5;
28647;PMS5003;17137;51.494;-0.262;2022-09-16T02:28:00;6;5;
28647;PMS5003;17137;51.494;-0.262;2022-09-16T02:28:40;6;5;
28647;PMS5003;17137;51.494;-0.262;2022-09-16T02:29:14;6;5;
28647;PMS5003;17137;51.494;-0.262;2022-09-16T02:29:50;6;5;
28647;PMS5003;17137;51.494;-0.262;2022-09-16T02:30:24;6;5;
28647;PMS5003;17137;51.494;-0.262;2022-09-16T02:30:54;5;4;
28647;PMS5003;17137;51.494;-0.262;2022-09-16T02:31:30;5;4;
28647;PMS5003;17137;51.494;-0.262;2022-09-16T02:32:04;5;4;
28647;PMS5003;17137;51.494;-0.262;2022-09-16T02:32:38;5;4;
28647;PMS5003;17137;51.494;-0.262;2022-09-16T02:33:12;5;4;
28647;PMS5003;17137;51.494;-0.262;2022-09-16T02:33:46;6;5;
28647;PMS5003;17137;51.494;-0.262;2022-09-16T02:34:22;7;5;
28647;PMS5003;17137;51.494;-0.262;2022-09-16T02:34:58;7;5;
28647;PMS5003;17137;51.494;-0.262;2022-09-16T02:35:31;7;5;
28647;PMS5003;17137;51.494;-0.262;2022-09-16T02:36:04;6;5;
28647;PMS5003;17137;51.494;-0.262;2022-09-16T02:36:36;6;5;
28647;PMS5003;17137;51.494;-0.262;2022-09-16T02:37:10;6;5;
28647;PMS5003;17137;51.494;-0.262;2022-09-16T02:37:48;5;4;
28647;PMS5003;17137;51.494;-0.262;2022-09-16T02:38:28;5;4;
28647;PMS5003;17137;51.494;-0.262;2022-09-16T02:39:04;5;4;
28647;PMS5003;17137;51.494;-0.262;2022-09-16T02:39:38;5;4;
28647;PMS5003;17137;51.494;-0.262;2022-09-16T02:40:11;5;4;
28647;PMS5003;17137;51.494;-0.262;2022-09-16T02:40:46;5;4;
28647;PMS5003;17137;51.494;-0.262;2022-09-16T02:41:20;5;4;
28647;PMS5003;17137;51.494;-0.262;2022-09-16T02:41:51;6;5;
28647;PMS5003;17137;51.494;-0.262;2022-09-16T02:42:22;6;5;
28647;PMS5003;17137;51.494;-0.262;2022-09-16T02:42:53;4;4;
28647;PMS5003;17137;51.494;-0.262;2022-09-16T02:43:23;4;4;
28647;PMS5003;17137;51.494;-0.262;2022-09-16T02:43:55;4;4;
28647;PMS5003;17137;51.494;-0.262;2022-09-16T02:44:26;6;4;
28647;PMS5003;17137;51.494;-0.262;2022-09-16T02:44:57;6;4;
28647;PMS5003;17137;51.494;-0.262;2022-09-16T02:45:30;6;4;
28647;PMS5003;17137;51.494;-0.262;2022-09-16T02:46:15;6;4;
28647;PMS5003;17137;51.494;-0.262;2022-09-16T02:46:54;6;4;
28647;PMS5003;17137;51.494;-0.262;2022-09-16T02:47:29;6;4;
28647;PMS5003;17137;51.494;-0.262;2022-09-16T02:48:08;7;4;
28647;PMS5003;17137;51.494;-0.262;2022-09-16T02:48:49;7;4;
28647;PMS5003;17137;51.494;-0.262;2022-09-16T02:49:27;7;4;
28647;PMS5003;17137;51.494;-0.262;2022-09-16T02:50:06;8;5;
28647;PMS5003;17137;51.494;-0.262;2022-09-16T02:50:44;8;5;
28647;PMS5003;17137;51.494;-0.262;2022-09-16T02:51:22;8;5;
28647;PMS5003;17137;51.494;-0.262;2022-09-16T02:52:01;7;5;
28647;PMS5003;17137;51.494;-0.262;2022-09-16T02:52:41;7;5;
28647;PMS5003;17137;51.494;-0.262;2022-09-16T02:53:17;7;5;
28647;PMS5003;17137;51.494;-0.262;2022-09-16T02:53:58;7;4;
28647;PMS5003;17137;51.494;-0.262;2022-09-16T02:54:34;7;4;
28647;PMS5003;17137;51.494;-0.262;2022-09-16T02:55:09;7;4;
28647;PMS5003;17137;51.494;-0.262;2022-09-16T02:55:45;8;5;
28647;PMS5003;17137;51.494;-0.262;2022-09-16T02:56:24;8;5;
28647;PMS5003;17137;51.494;-0.262;2022-09-16T02:56:59;8;5;
28647;PMS5003;17137;51.494;-0.262;2022-09-16T02:57:29;9;6;
28647;PMS5003;17137;51.494;-0.262;2022-09-16T02:58:05;9;6;
28647;PMS5003;17137;51.494;-0.262;2022-09-16T02:58:36;9;6;
28647;PMS5003;17137;51.494;-0.262;2022-09-16T02:59:07;8;6;
28647;PMS5003;17137;51.494;-0.262;2022-09-16T02:59:40;8;6;
28647;PMS5003;17137;51.494;-0.262;2022-09-16T03:00:12;8;6;
28647;PMS5003;17137;51.494;-0.262;2022-09-16T03:00:43;8;6;
28647;PMS5003;17137;51.494;-0.262;2022-09-16T03:01:16;8;6;
28647;PMS5003;17137;51.494;-0.262;2022-09-16T03:01:48;8;6;
28647;PMS5003;17137;51.494;-0.262;2022-09-16T03:02:19;7;6;
28647;PMS5003;17137;51.494;-0.262;2022-09-16T03:02:50;7;6;
28647;PMS5003;17137;51.494;-0.262;2022-09-16T03:03:22;7;6;
28647;PMS5003;17137;51.494;-0.262;2022-09-16T03:03:53;9;7;
28647;PMS5003;17137;51.494;-0.262;2022-09-16T03:04:24;9;7;
28647;PMS5003;17137;51.494;-0.262;2022-09-16T03:04:55;9;7;
28647;PMS5003;17137;51.494;-0.262;2022-09-16T03:05:26;9;6;
28647;PMS5003;17137;51.494;-0.262;2022-09-16T03:06:02;9;6;
28647;PMS5003;17137;51.494;-0.262;2022-09-16T03:06:43;9;6;
28647;PMS5003;17137;51.494;-0.262;2022-09-16T03:07:14;9;6;
28647;PMS5003;17137;51.494;-0.262;2022-09-16T03:07:45;10;7;
28647;PMS5003;17137;51.494;-0.262;2022-09-16T03:08:15;10;7;
28647;PMS5003;17137;51.494;-0.262;2022-09-16T03:08:45;12;8;
28647;PMS5003;17137;51.494;-0.262;2022-09-16T03:09:17;12;8;
28647;PMS5003;17137;51.494;-0.262;2022-09-16T03:09:47;12;8;
28647;PMS5003;17137;51.494;-0.262;2022-09-16T03:10:19;12;8;
28647;PMS5003;17137;51.494;-0.262;2022-09-16T03:10:53;12;8;
28647;PMS5003;17137;51.494;-0.262;2022-09-16T03:11:29;11;7;
28647;PMS5003;17137;51.494;-0.262;2022-09-16T03:12:18;11;7;
28647;PMS5003;17137;51.494;-0.262;2022-09-16T03:12:59;11;7;
28647;PMS5003;17137;51.494;-0.262;2022-09-16T03:13:37;12;8;
28647;PMS5003;17137;51.494;-0.262;2022-09-16T03:14:24;11;7;
28647;PMS5003;17137;51.494;-0.262;2022-09-16T03:15:32;11;7;
28647;PMS5003;17137;51.494;-0.262;2022-09-16T03:16:16;11;7;
28647;PMS5003;17137;51.494;-0.262;2022-09-16T03:16:53;12;7;
28647;PMS5003;17137;51.494;-0.262;2022-09-16T03:17:36;12;7;
28647;PMS5003;17137;51.494;-0.262;2022-09-16T03:18:27;12;7;
28647;PMS5003;17137;51.494;-0.262;2022-09-16T03:19:12;11;6;
28647;PMS5003;17137;51.494;-0.262;2022-09-16T03:19:53;11;6;
28647;PMS5003;17137;51.494;-0.262;2022-09-16T03:20:35;11;6;
28647;PMS5003;17137;51.494;-0.262;2022-09-16T03:21:13;11;6;
28647;PMS5003;17137;51.494;-0.262;2022-09-16T03:21:50;12;7;
28647;PMS5003;17137;51.494;-0.262;2022-09-16T03:22:33;12;7;
28647;PMS5003;17137;51.494;-0.262;2022-09-16T03:23:16;9;6;
28647;PMS5003;17137;51.494;-0.262;2022-09-16T03:23:54;8;5;
28647;PMS5003;17137;51.494;-0.262;2022-09-16T03:24:37;8;5;
28647;PMS5003;17137;51.494;-0.262;2022-09-16T03:25:19;6;5;
28647;PMS5003;17137;51.494;-0.262;2022-09-16T03:26:01;7;6;
28647;PMS5003;17137;51.494;-0.262;2022-09-16T03:26:41;7;6;
28647;PMS5003;17137;51.494;-0.262;2022-09-16T03:27:17;7;6;
28647;PMS5003;17137;51.494;-0.262;2022-09-16T03:27:53;7;6;
28647;PMS5003;17137;51.494;-0.262;2022-09-16T03:28:30;6;5;
28647;PMS5003;17137;51.494;-0.262;2022-09-16T03:29:08;5;5;
28647;PMS5003;17137;51.494;-0.262;2022-09-16T03:29:48;5;5;
28647;PMS5003;17137;51.494;-0.262;2022-09-16T03:30:23;5;5;
28647;PMS5003;17137;51.494;-0.262;2022-09-16T03:30:55;4;4;
28647;PMS5003;17137;51.494;-0.262;2022-09-16T03:31:33;4;4;
28647;PMS5003;17137;51.494;-0.262;2022-09-16T03:32:14;4;4;
28647;PMS5003;17137;51.494;-0.262;2022-09-16T03:32:50;5;5;
28647;PMS5003;17137;51.494;-0.262;2022-09-16T03:33:25;5;5;
28647;PMS5003;17137;51.494;-0.262;2022-09-16T03:34:03;5;5;
28647;PMS5003;17137;51.494;-0.262;2022-09-16T03:34:38;4;4;
28647;PMS5003;17137;51.494;-0.262;2022-09-16T03:35:14;4;4;
28647;PMS5003;17137;51.494;-0.262;2022-09-16T03:35:48;4;4;
28647;PMS5003;17137;51.494;-0.262;2022-09-16T03:36:21;4;4;
28647;PMS5003;17137;51.494;-0.262;2022-09-16T03:36:57;5;5;
28647;PMS5003;17137;51.494;-0.262;2022-09-16T03:37:32;5;5;
28647;PMS5003;17137;51.494;-0.262;2022-09-16T03:38:05;6;6;
28647;PMS5003;17137;51.494;-0.262;2022-09-16T03:38:36;5;5;
28647;PMS5003;17137;51.494;-0.262;2022-09-16T03:39:09;5;5;
28647;PMS5003;17137;51.494;-0.262;2022-09-16T03:39:40;4;4;
28647;PMS5003;17137;51.494;-0.262;2022-09-16T03:40:14;4;4;
28647;PMS5003;17137;51.494;-0.262;2022-09-16T03:40:46;5;5;
28647;PMS5003;17137;51.494;-0.262;2022-09-16T03:41:17;5;5;
28647;PMS5003;17137;51.494;-0.262;2022-09-16T03:41:48;5;5;
28647;PMS5003;17137;51.494;-0.262;2022-09-16T03:42:20;4;4;
28647;PMS5003;17137;51.494;-0.262;2022-09-16T03:42:50;5;5;
28647;PMS5003;17137;51.494;-0.262;2022-09-16T03:43:21;5;5;
28647;PMS5003;17137;51.494;-0.262;2022-09-16T03:43:52;5;5;
28647;PMS5003;17137;51.494;-0.262;2022-09-16T03:44:29;6;6;
28647;PMS5003;17137;51.494;-0.262;2022-09-16T03:45:00;6;6;
28647;PMS5003;17137;51.494;-0.262;2022-09-16T03:45:30;6;6;
28647;PMS5003;17137;51.494;-0.262;2022-09-16T03:46:01;6;6;
28647;PMS5003;17137;51.494;-0.262;2022-09-16T03:46:32;6;6;
28647;PMS5003;17137;51.494;-0.262;2022-09-16T03:47:02;6;6;
28647;PMS5003;17137;51.494;-0.262;2022-09-16T03:47:33;5;5;
28647;PMS5003;17137;51.494;-0.262;2022-09-16T03:48:04;5;5;
28647;PMS5003;17137;51.494;-0.262;2022-09-16T03:48:35;5;5;
28647;PMS5003;17137;51.494;-0.262;2022-09-16T03:49:05;5;5;
28647;PMS5003;17137;51.494;-0.262;2022-09-16T03:49:36;6;6;
28647;PMS5003;17137;51.494;-0.262;2022-09-16T03:50:07;6;6;
28647;PMS5003;17137;51.494;-0.262;2022-09-16T03:50:38;6;6;
28647;PMS5003;17137;51.494;-0.262;2022-09-16T03:51:08;6;6;
28647;PMS5003;17137;51.494;-0.262;2022-09-16T03:51:38;6;6;
28647;PMS5003;17137;51.494;-0.262;2022-09-16T03:52:09;7;7;
28647;PMS5003;17137;51.494;-0.262;2022-09-16T03:52:39;7;7;
28647;PMS5003;17137;51.494;-0.262;2022-09-16T03:53:10;7;7;
28647;PMS5003;17137;51.494;-0.262;2022-09-16T03:53:40;6;6;
28647;PMS5003;17137;51.494;-0.262;2022-09-16T03:54:11;6;6;
28647;PMS5003;17137;51.494;-0.262;2022-09-16T03:54:42;6;6;
28647;PMS5003;17137;51.494;-0.262;2022-09-16T03:55:12;7;7;
28647;PMS5003;17137;51.494;-0.262;2022-09-16T03:55:43;7;7;
28647;PMS5003;17137;51.494;-0.262;2022-09-16T03:56:16;7;7;
28647;PMS5003;17137;51.494;-0.262;2022-09-16T03:56:47;7;7;
28647;PMS5003;17137;51.494;-0.262;2022-09-16T03:57:17;7;7;
28647;PMS5003;17137;51.494;-0.262;2022-09-16T03:57:48;7;7;
28647;PMS5003;17137;51.494;-0.262;2022-09-16T03:58:18;6;6;